Decoded Metar for NCRG (AVARUA in COOK ISLANDS) (IATA:RAR) | Meteo·Mobile Aviation Weather
aviador You're here:

NCRG Decoded Metar

AVARUA in COOK ISLANDS
Report Time2019-10-21 07:00:00
UTC Time2019-10-21 07:10:44
Flight Rules vfr VFR
Wind090° at 07 kt
W.Decomp.*RWY 08: 7.0 kt HW 0.5 kt LCW
Visibility9999 m
Phenomena:N/A
Clouds:Few 100 Hf
Expected CloudBase > 800 ft AGL from Temp-Dew spread
CeilingNone
Temp24°C (ISA +9)
Dew Point22°C (89% RH)
QNH1015 hPa
Density Alt1,352 ft
Elevation23 ft
Report Wrong Elevation
Raw Report
METAR NCRG 210700Z AUTO 09007KT 9999 FEW100/// 24/22 Q1015=

Extra information for NCRG:More info

Metar Taf Metar & Taf Last 4 Metars F.Rules Stats Wind Profile Meteogram Temp Stats Airport Information Weather charts Add Link Nearby VenuesMetar ALERT Operation Metar Decoded Social comments